Home   Weather   USA   Austin   Past weeks
Flag for USA

Past Weather in Austin, Texas, USA — February 2021

Currently: 79 °F. Clear. (Weather station: Camp Mabry / Austin City, USA). See more current weather

February 2021 Weather in Austin — Graph

°F

High & Low Weather Summary for February 2021

 TemperatureHumidityPressure
High84 °F (Feb 4, 2:51 pm)94% (Feb 27, 10:09 am)30.61 "Hg (Feb 27, 10:09 am)
Low8 °F (Feb 15, 6:51 am)14% (Feb 6, 2:51 pm)29.73 "Hg (Feb 4, 2:51 pm)
Average49 °F69%30.10 "Hg
* Reported Feb 1 12:51 am — Feb 28 11:51 pm, Austin. Weather by CustomWeather, © 2021

Note: Actual official high and low records may vary slightly from our data, if they occured in-between our weather recording intervals... More about our weather records

Austin Weather History for February 1, 2021

Scroll right to see more
 ConditionsComfort  
Time TempWeatherWind HumidityBarometerVisibility
12:51 am
Mon, Feb 1
48 °FClear.5 mph52%30.42 "Hg10 mi
1:51 am48 °FClear.5 mph52%30.42 "Hg10 mi
2:51 am47 °FClear.3 mph54%30.42 "Hg10 mi
3:51 am45 °FClear.3 mph60%30.43 "Hg10 mi
4:51 am44 °FClear.3 mph63%30.43 "Hg10 mi
5:51 am42 °FClear.3 mph68%30.43 "Hg10 mi
6:51 am42 °FClear.5 mph68%30.45 "Hg10 mi
7:51 am43 °FSunny.No wind65%30.46 "Hg10 mi
8:51 am48 °FSunny.5 mph56%30.47 "Hg10 mi
9:51 am54 °FSunny.8 mph38%30.46 "Hg10 mi
10:51 am58 °FSunny.5 mph31%30.45 "Hg10 mi
11:51 am61 °FSunny.8 mph24%30.44 "Hg10 mi
12:51 pm63 °FSunny.9 mph22%30.41 "Hg10 mi
1:51 pm63 °FSunny.10 mph20%30.37 "Hg10 mi
2:51 pm65 °FSunny.N/A19%30.34 "Hg10 mi
3:51 pm66 °FSunny.No wind18%30.33 "Hg10 mi
4:51 pm63 °FSunny.3 mph21%30.33 "Hg10 mi
5:51 pm60 °FSunny.5 mph25%30.33 "Hg10 mi
6:51 pm57 °FClear.5 mph28%30.34 "Hg10 mi
7:51 pm55 °FClear.5 mph30%30.35 "Hg10 mi
8:51 pm51 °FClear.No wind38%30.34 "Hg10 mi
9:51 pm46 °FClear.No wind54%30.34 "Hg10 mi
10:51 pm45 °FClear.No wind51%30.34 "Hg10 mi
11:51 pm42 °FClear.No wind57%30.33 "Hg10 mi
Weather by CustomWeather, © 2021

See weather overview